createdAt,value
2017-08-31T00:00:51.508Z,74.3
2017-08-31T00:01:53.070Z,74.8
2017-08-31T00:02:54.625Z,74.8
2017-08-31T00:03:56.202Z,75.3
2017-08-31T00:04:57.776Z,75.5
2017-08-31T00:05:59.331Z,75.5
2017-08-31T00:07:00.941Z,75.9
2017-08-31T00:08:02.560Z,76.0
2017-08-31T00:09:04.097Z,76.3
2017-08-31T00:10:05.652Z,76.3
2017-08-31T00:11:07.270Z,76.2
2017-08-31T00:12:08.852Z,76.3
2017-08-31T00:13:10.520Z,76.4
2017-08-31T00:14:12.157Z,76.6
2017-08-31T00:15:13.855Z,76.6
2017-08-31T00:16:15.460Z,76.4
2017-08-31T00:17:16.992Z,75.8
2017-08-31T00:18:18.409Z,75.9
2017-08-31T00:19:19.820Z,76.5
2017-08-31T00:20:21.230Z,76.6
2017-08-31T00:21:22.643Z,76.4
2017-08-31T00:22:24.057Z,76.3
2017-08-31T00:23:25.477Z,76.7
2017-08-31T00:24:26.888Z,76.9
2017-08-31T00:25:28.409Z,76.9
2017-08-31T00:26:29.908Z,77.1
2017-08-31T00:27:31.628Z,77.6
2017-08-31T00:28:33.132Z,77.2
2017-08-31T00:29:34.640Z,77.3
2017-08-31T00:30:36.353Z,77.6
2017-08-31T00:31:37.849Z,77.7
2017-08-31T00:32:40.184Z,77.7
2017-08-31T00:33:41.671Z,78.2
2017-08-31T00:34:43.496Z,78.9
2017-08-31T00:35:45.201Z,78.6
2017-08-31T00:36:47.766Z,78.9
2017-08-31T00:37:49.259Z,79.3
2017-08-31T00:38:50.744Z,79.5
2017-08-31T00:39:52.513Z,79.5
2017-08-31T00:40:53.938Z,80.3
2017-08-31T00:41:55.610Z,80.7
2017-08-31T00:42:57.173Z,80.5
2017-08-31T00:43:58.687Z,80.8
2017-08-31T00:45:00.253Z,81.0
2017-08-31T00:46:01.778Z,81.2
2017-08-31T00:47:03.432Z,81.4
2017-08-31T00:48:04.946Z,81.3
2017-08-31T00:49:06.471Z,81.9
2017-08-31T00:50:08.359Z,81.3
2017-08-31T00:51:10.228Z,81.4
2017-08-31T00:52:11.695Z,81.9
2017-08-31T00:53:13.218Z,81.7
2017-08-31T00:54:14.801Z,81.6
2017-08-31T00:55:16.322Z,82.2
2017-08-31T00:56:18.005Z,81.7
2017-08-31T00:57:19.433Z,81.4
2017-08-31T00:58:20.884Z,81.3
2017-08-31T00:59:22.404Z,81.3
2017-08-31T01:00:23.993Z,81.0
2017-08-31T01:01:25.476Z,81.8
2017-08-31T01:02:26.999Z,81.6
2017-08-31T01:03:28.586Z,81.9
2017-08-31T01:04:30.096Z,82.2
2017-08-31T01:05:31.615Z,82.4
2017-08-31T01:06:33.157Z,82.4
2017-08-31T01:07:34.710Z,82.7
2017-08-31T01:08:36.278Z,82.8
2017-08-31T01:09:37.796Z,83.0
2017-08-31T01:10:39.379Z,83.1
2017-08-31T01:11:40.977Z,83.6
2017-08-31T01:12:42.465Z,83.3
2017-08-31T01:13:43.962Z,84.2
2017-08-31T01:14:45.541Z,84.0
2017-08-31T01:15:47.051Z,84.0
2017-08-31T01:16:48.540Z,83.9
2017-08-31T01:17:50.030Z,83.8
2017-08-31T01:18:51.572Z,84.1
2017-08-31T01:19:53.107Z,84.6
2017-08-31T01:20:54.628Z,84.0
2017-08-31T01:21:56.148Z,84.5
2017-08-31T01:22:57.617Z,85.3
2017-08-31T01:23:59.118Z,85.3
2017-08-31T01:25:00.656Z,84.4
2017-08-31T01:26:02.215Z,85.3
2017-08-31T01:27:03.753Z,85.2
2017-08-31T01:28:05.268Z,85.1
2017-08-31T01:29:06.818Z,85.0
2017-08-31T01:30:08.348Z,85.0
2017-08-31T01:31:09.863Z,85.2
2017-08-31T01:32:11.414Z,85.2
2017-08-31T01:33:12.918Z,85.8
2017-08-31T01:34:14.501Z,85.9
2017-08-31T01:35:16.165Z,85.9
2017-08-31T01:36:17.774Z,86.2
2017-08-31T01:37:19.313Z,86.1
2017-08-31T01:38:20.782Z,86.5
2017-08-31T01:39:22.339Z,85.7
2017-08-31T01:40:23.844Z,86.7
2017-08-31T01:41:25.403Z,86.4
2017-08-31T01:42:26.913Z,86.2
2017-08-31T01:43:28.437Z,87.0
2017-08-31T01:44:29.973Z,86.8
2017-08-31T01:45:31.464Z,86.8
2017-08-31T01:46:32.989Z,86.7
2017-08-31T01:47:34.501Z,86.9
2017-08-31T01:48:36.049Z,87.0
2017-08-31T01:49:37.585Z,87.2
2017-08-31T01:50:39.132Z,86.6
2017-08-31T01:51:40.612Z,87.0
2017-08-31T01:52:42.119Z,87.4
2017-08-31T01:53:43.730Z,87.2
2017-08-31T01:54:45.288Z,88.0
2017-08-31T01:55:46.849Z,87.7
2017-08-31T01:56:48.446Z,87.9
2017-08-31T01:57:49.976Z,87.7
2017-08-31T01:58:51.554Z,87.9
2017-08-31T01:59:53.123Z,87.9
2017-08-31T02:00:54.674Z,88.3
2017-08-31T02:01:56.209Z,87.8
2017-08-31T02:02:57.707Z,88.4
2017-08-31T02:03:59.264Z,88.5
2017-08-31T02:05:00.888Z,88.4
2017-08-31T02:06:02.441Z,87.8
2017-08-31T02:07:04.011Z,88.0
2017-08-31T02:08:05.549Z,88.0
2017-08-31T02:09:07.116Z,88.2
2017-08-31T02:10:08.663Z,88.4
2017-08-31T02:11:10.209Z,88.5
2017-08-31T02:12:11.740Z,89.0
2017-08-31T02:13:13.244Z,89.1
2017-08-31T02:14:14.746Z,89.0
2017-08-31T02:15:16.270Z,89.0
2017-08-31T02:16:17.829Z,88.6
2017-08-31T02:17:19.340Z,88.7
2017-08-31T02:18:20.897Z,88.6
2017-08-31T02:19:22.535Z,88.6
2017-08-31T02:20:24.098Z,88.5
2017-08-31T02:21:25.618Z,88.7
2017-08-31T02:22:27.190Z,88.9
2017-08-31T02:23:28.750Z,89.2
2017-08-31T02:24:30.232Z,88.8
2017-08-31T02:25:31.781Z,89.1
2017-08-31T02:26:33.312Z,89.6
2017-08-31T02:27:34.872Z,89.7
2017-08-31T02:28:36.433Z,89.7
2017-08-31T02:29:37.951Z,90.5
2017-08-31T02:30:39.524Z,90.2
2017-08-31T02:31:41.052Z,89.9
2017-08-31T02:32:42.564Z,90.0
2017-08-31T02:33:44.138Z,90.1
2017-08-31T02:34:45.673Z,91.0
2017-08-31T02:35:47.219Z,90.4
2017-08-31T02:36:48.765Z,90.5
2017-08-31T02:37:50.302Z,90.1
2017-08-31T02:38:51.807Z,89.5
2017-08-31T02:39:53.330Z,89.4
2017-08-31T02:40:54.801Z,89.3
2017-08-31T02:41:56.400Z,88.9
2017-08-31T02:42:58.019Z,88.4
2017-08-31T02:43:59.604Z,88.5
2017-08-31T02:45:01.081Z,88.4
2017-08-31T02:46:02.618Z,88.2
2017-08-31T02:47:04.120Z,88.2
2017-08-31T02:48:05.694Z,88.5
2017-08-31T02:49:07.222Z,88.3
2017-08-31T02:50:08.779Z,88.5
2017-08-31T02:51:10.331Z,88.5
2017-08-31T02:52:11.907Z,87.8
2017-08-31T02:53:13.458Z,88.5
2017-08-31T02:54:15.039Z,88.2
2017-08-31T02:55:16.597Z,88.0
2017-08-31T02:56:18.131Z,88.0
2017-08-31T02:57:19.828Z,88.0
2017-08-31T02:58:21.407Z,88.1
2017-08-31T02:59:22.949Z,88.5
2017-08-31T03:00:24.555Z,89.0
2017-08-31T03:01:26.109Z,88.9
2017-08-31T03:02:27.641Z,89.4
2017-08-31T03:03:29.290Z,89.1
2017-08-31T03:04:30.860Z,89.3
2017-08-31T03:05:32.418Z,89.5
2017-08-31T03:06:34.017Z,89.2
2017-08-31T03:07:35.580Z,89.9
2017-08-31T03:08:37.118Z,89.1
2017-08-31T03:09:38.657Z,89.4
2017-08-31T03:10:40.155Z,89.5
2017-08-31T03:11:41.750Z,88.8
2017-08-31T03:12:43.308Z,88.0
2017-08-31T03:13:44.926Z,87.3
2017-08-31T03:14:46.435Z,87.6
2017-08-31T03:15:47.962Z,86.6
2017-08-31T03:16:49.488Z,86.2
2017-08-31T03:17:51.027Z,86.4
2017-08-31T03:18:52.550Z,85.7
2017-08-31T03:19:54.115Z,85.9
2017-08-31T03:20:55.682Z,85.9
2017-08-31T03:21:57.283Z,85.7
2017-08-31T03:22:58.898Z,85.4
2017-08-31T03:24:00.443Z,86.9
2017-08-31T03:25:01.973Z,86.3
2017-08-31T03:26:03.560Z,85.5
2017-08-31T03:27:05.040Z,85.4
2017-08-31T03:28:06.489Z,84.6
2017-08-31T03:29:08.023Z,84.4
2017-08-31T03:30:09.526Z,83.6
2017-08-31T03:31:11.065Z,83.9
2017-08-31T03:32:12.656Z,84.7
2017-08-31T03:33:14.222Z,84.7
2017-08-31T03:34:15.883Z,84.8
2017-08-31T03:35:17.399Z,85.1
2017-08-31T03:36:18.903Z,85.0
2017-08-31T03:37:20.444Z,85.9
2017-08-31T03:38:21.960Z,86.1
2017-08-31T03:39:23.460Z,87.1
2017-08-31T03:40:25.000Z,87.1
2017-08-31T03:41:26.449Z,87.0
2017-08-31T03:42:27.980Z,87.5
2017-08-31T03:43:29.576Z,87.2
2017-08-31T03:44:31.142Z,87.6
2017-08-31T03:45:32.673Z,87.9
2017-08-31T03:46:34.222Z,88.2
2017-08-31T03:47:35.748Z,88.6
2017-08-31T03:48:37.307Z,88.8
2017-08-31T03:49:38.872Z,89.0
2017-08-31T03:50:40.503Z,89.0
2017-08-31T03:51:42.112Z,89.0
2017-08-31T03:52:43.598Z,89.0
2017-08-31T03:53:45.143Z,89.4
2017-08-31T03:54:46.715Z,89.1
2017-08-31T03:55:48.218Z,89.3
2017-08-31T03:56:49.749Z,89.4
2017-08-31T03:57:51.334Z,89.8
2017-08-31T03:58:52.859Z,90.2
2017-08-31T03:59:54.443Z,90.2
2017-08-31T04:00:56.003Z,90.4
2017-08-31T04:01:57.620Z,90.2
2017-08-31T04:02:59.245Z,90.3
2017-08-31T04:04:00.816Z,90.3
2017-08-31T04:05:02.335Z,90.2
2017-08-31T04:06:03.904Z,90.0
2017-08-31T04:07:05.472Z,89.7
2017-08-31T04:08:07.038Z,90.3
2017-08-31T04:09:08.603Z,90.0
2017-08-31T04:10:10.133Z,89.8
2017-08-31T04:11:11.691Z,90.1
2017-08-31T04:12:13.289Z,90.5
2017-08-31T04:13:14.876Z,90.4
2017-08-31T04:14:16.412Z,90.5
2017-08-31T04:15:18.160Z,90.2
2017-08-31T04:16:19.720Z,90.0
2017-08-31T04:17:21.361Z,89.9
2017-08-31T04:18:22.945Z,89.9
2017-08-31T04:19:24.482Z,90.4
2017-08-31T04:20:26.193Z,90.1
2017-08-31T04:21:27.790Z,90.2
2017-08-31T04:22:29.366Z,90.5
2017-08-31T04:23:31.083Z,90.3
2017-08-31T04:24:32.647Z,90.4
2017-08-31T04:25:34.292Z,90.0
2017-08-31T04:26:35.909Z,90.3
2017-08-31T04:27:37.457Z,90.2
2017-08-31T04:28:39.045Z,89.4
2017-08-31T04:29:40.612Z,89.4
2017-08-31T04:30:42.232Z,89.9
2017-08-31T04:31:43.894Z,90.2
2017-08-31T04:32:45.468Z,90.2
2017-08-31T04:33:47.192Z,90.3
2017-08-31T04:34:48.792Z,90.4
2017-08-31T04:35:50.388Z,90.2
2017-08-31T04:36:52.011Z,90.4
2017-08-31T04:37:53.667Z,90.3
2017-08-31T04:38:55.322Z,90.5
2017-08-31T04:39:56.940Z,90.3
2017-08-31T04:40:58.592Z,90.1
2017-08-31T04:42:00.153Z,89.9
2017-08-31T04:43:01.833Z,90.0
2017-08-31T04:44:03.419Z,90.2
2017-08-31T04:45:04.997Z,89.4
2017-08-31T04:46:06.723Z,89.7
2017-08-31T04:47:08.313Z,90.0
2017-08-31T04:48:09.894Z,90.1
2017-08-31T04:49:13.436Z,90.1
2017-08-31T04:50:15.008Z,90.3
2017-08-31T04:51:16.687Z,90.2
2017-08-31T04:52:18.284Z,90.3
2017-08-31T04:53:19.943Z,89.1
2017-08-31T04:54:21.624Z,89.2
2017-08-31T04:55:23.198Z,89.0
2017-08-31T04:56:24.779Z,88.9
2017-08-31T04:57:26.379Z,88.8
2017-08-31T04:58:27.931Z,88.7
2017-08-31T04:59:29.572Z,88.9
2017-08-31T05:00:31.148Z,88.8
2017-08-31T05:01:32.776Z,88.3
2017-08-31T05:02:34.317Z,88.3
2017-08-31T05:03:35.863Z,87.7
2017-08-31T05:04:37.468Z,87.1
2017-08-31T05:05:39.083Z,87.2
2017-08-31T05:06:40.654Z,86.6
2017-08-31T05:07:42.228Z,86.1
2017-08-31T05:08:43.789Z,86.1
2017-08-31T05:09:45.409Z,86.3
2017-08-31T05:10:47.034Z,85.6
2017-08-31T05:11:48.654Z,86.3
2017-08-31T05:12:50.264Z,85.6
2017-08-31T05:13:51.871Z,85.8
2017-08-31T05:14:53.512Z,86.1
2017-08-31T05:15:55.090Z,86.0
2017-08-31T05:16:56.729Z,86.0
2017-08-31T05:17:58.289Z,86.1
2017-08-31T05:18:59.959Z,85.6
2017-08-31T05:20:01.479Z,85.6
2017-08-31T05:21:03.087Z,86.2
2017-08-31T05:22:04.772Z,85.8
2017-08-31T05:23:06.361Z,86.1
2017-08-31T05:24:07.974Z,85.9
2017-08-31T05:25:09.661Z,85.6
2017-08-31T05:26:11.327Z,85.8
2017-08-31T05:27:13.044Z,86.0
2017-08-31T05:28:14.627Z,86.0
2017-08-31T05:29:16.220Z,86.2
2017-08-31T05:30:17.801Z,85.5
2017-08-31T05:31:19.428Z,85.6
2017-08-31T05:32:21.066Z,85.6
2017-08-31T05:33:22.591Z,85.5
2017-08-31T05:34:24.190Z,85.0
2017-08-31T05:35:25.801Z,84.7
2017-08-31T05:36:27.421Z,85.2
2017-08-31T05:37:29.019Z,84.7
2017-08-31T05:38:30.565Z,84.4
2017-08-31T05:39:32.170Z,84.3
2017-08-31T05:40:33.748Z,83.5
2017-08-31T05:41:35.346Z,83.8
2017-08-31T05:42:36.941Z,84.4
2017-08-31T05:43:38.481Z,83.3
2017-08-31T05:44:40.956Z,83.0
2017-08-31T05:45:42.547Z,82.8
2017-08-31T05:46:44.158Z,82.3
2017-08-31T05:47:45.653Z,82.4
2017-08-31T05:48:47.460Z,82.4
2017-08-31T05:49:48.961Z,81.9
2017-08-31T05:50:50.586Z,81.5
2017-08-31T05:51:52.119Z,81.6
2017-08-31T05:52:53.643Z,81.2
2017-08-31T05:53:55.140Z,81.1
2017-08-31T05:54:56.645Z,80.8
2017-08-31T05:55:58.148Z,80.8
2017-08-31T05:56:59.667Z,80.8
2017-08-31T05:58:01.172Z,80.3
2017-08-31T05:59:02.711Z,80.2
2017-08-31T06:00:04.221Z,80.3
2017-08-31T06:01:05.728Z,80.0
2017-08-31T06:02:07.349Z,79.7
2017-08-31T06:03:08.853Z,79.8
2017-08-31T06:04:10.385Z,79.3
2017-08-31T06:05:11.949Z,78.8
2017-08-31T06:06:13.488Z,78.6
2017-08-31T06:07:15.287Z,78.5
2017-08-31T06:08:16.820Z,78.1
2017-08-31T06:09:18.570Z,77.6
2017-08-31T06:10:20.183Z,77.3
2017-08-31T06:11:21.684Z,76.8
2017-08-31T06:12:23.284Z,76.5
2017-08-31T06:13:24.790Z,76.3
2017-08-31T06:14:26.348Z,77.1
2017-08-31T06:15:27.909Z,77.1
2017-08-31T06:16:29.489Z,76.5
2017-08-31T06:17:31.015Z,76.0
2017-08-31T06:18:32.755Z,76.0
2017-08-31T06:19:34.388Z,76.0
2017-08-31T06:20:35.938Z,76.3
2017-08-31T06:21:37.501Z,75.9
2017-08-31T06:22:39.030Z,74.9
2017-08-31T06:23:40.601Z,74.4
2017-08-31T06:24:42.146Z,74.9
2017-08-31T06:25:43.661Z,74.0
2017-08-31T06:26:45.171Z,73.7
2017-08-31T06:27:46.673Z,72.3
2017-08-31T06:28:48.232Z,72.8
2017-08-31T06:29:49.818Z,73.2
2017-08-31T06:30:51.371Z,73.7
2017-08-31T06:31:52.864Z,72.6
2017-08-31T06:32:54.404Z,72.5
2017-08-31T06:33:55.963Z,72.1
2017-08-31T06:34:58.462Z,72.2
2017-08-31T06:36:00.024Z,71.5
2017-08-31T06:37:01.637Z,71.8
2017-08-31T06:38:03.211Z,71.2
2017-08-31T06:39:04.803Z,70.2
2017-08-31T06:40:06.342Z,69.7
2017-08-31T06:41:07.929Z,69.7
2017-08-31T06:42:09.471Z,69.8
2017-08-31T06:43:10.942Z,70.7
2017-08-31T06:44:12.540Z,69.4
2017-08-31T06:45:14.123Z,68.5
2017-08-31T06:46:15.711Z,67.2
2017-08-31T06:47:17.331Z,66.8
2017-08-31T06:48:18.936Z,66.9
2017-08-31T06:49:20.607Z,67.5
2017-08-31T06:50:22.194Z,67.0
2017-08-31T06:51:23.864Z,66.8
2017-08-31T06:52:25.433Z,66.5
2017-08-31T06:53:26.996Z,66.4
2017-08-31T06:54:28.533Z,66.3
2017-08-31T06:55:30.179Z,66.4
2017-08-31T06:56:31.740Z,65.7
2017-08-31T06:57:33.301Z,65.2
2017-08-31T06:58:34.890Z,65.5
2017-08-31T06:59:36.504Z,65.6
2017-08-31T07:00:38.099Z,66.5
2017-08-31T07:01:39.710Z,66.4
2017-08-31T07:02:41.425Z,66.7
2017-08-31T07:03:42.967Z,66.7
2017-08-31T07:04:44.813Z,66.3
2017-08-31T07:05:46.129Z,66.1
2017-08-31T07:06:47.705Z,66.2
2017-08-31T07:07:49.308Z,66.5
2017-08-31T07:08:50.994Z,66.3
2017-08-31T07:09:52.595Z,65.9
2017-08-31T07:10:54.378Z,66.4
2017-08-31T07:11:55.999Z,66.9
2017-08-31T07:12:57.658Z,66.4
2017-08-31T07:13:59.215Z,66.1
2017-08-31T07:15:00.800Z,66.3
2017-08-31T07:16:02.394Z,64.9
2017-08-31T07:17:03.979Z,64.8
2017-08-31T07:18:05.513Z,64.9
2017-08-31T07:19:07.106Z,65.2
2017-08-31T07:20:08.716Z,65.5
2017-08-31T07:21:10.567Z,66.2
2017-08-31T07:22:12.102Z,66.6
2017-08-31T07:23:13.628Z,65.9
2017-08-31T07:24:15.164Z,66.3
2017-08-31T07:25:16.731Z,65.6
2017-08-31T07:26:18.248Z,64.5
2017-08-31T07:27:19.729Z,65.9
2017-08-31T07:28:21.288Z,65.1
2017-08-31T07:29:24.526Z,65.2
2017-08-31T07:30:26.125Z,64.9
2017-08-31T07:31:27.594Z,65.9
2017-08-31T07:32:29.190Z,65.9
2017-08-31T07:33:30.875Z,66.1
2017-08-31T07:34:32.508Z,66.5
2017-08-31T07:35:34.317Z,66.8
2017-08-31T07:36:35.995Z,67.0
2017-08-31T07:37:37.580Z,66.8
2017-08-31T07:38:39.147Z,66.5
2017-08-31T07:39:40.780Z,66.7
2017-08-31T07:40:42.303Z,66.8
2017-08-31T07:41:43.885Z,67.3
2017-08-31T07:42:45.443Z,66.9
2017-08-31T07:43:46.945Z,66.9
2017-08-31T07:44:48.462Z,66.9
2017-08-31T07:45:49.942Z,66.9
2017-08-31T07:46:51.639Z,66.9
2017-08-31T07:47:53.122Z,67.0
2017-08-31T07:48:54.780Z,66.5
2017-08-31T07:49:56.348Z,66.4
2017-08-31T07:50:57.974Z,66.2
2017-08-31T07:51:59.596Z,66.4
2017-08-31T07:53:01.199Z,66.4
2017-08-31T07:54:02.760Z,66.6
2017-08-31T07:55:04.329Z,66.3
2017-08-31T07:56:05.804Z,65.9
2017-08-31T07:57:07.419Z,65.7
2017-08-31T07:58:08.967Z,65.8
2017-08-31T07:59:10.562Z,65.5
2017-08-31T08:00:12.146Z,65.0
2017-08-31T08:01:13.731Z,63.4
2017-08-31T08:02:15.285Z,62.3
2017-08-31T08:03:16.769Z,62.3
2017-08-31T08:04:18.330Z,62.2
2017-08-31T08:05:19.780Z,62.3
2017-08-31T08:06:21.316Z,63.2
2017-08-31T08:07:22.789Z,64.4
2017-08-31T08:08:24.286Z,64.8
2017-08-31T08:09:25.896Z,64.9
2017-08-31T08:10:27.471Z,65.5
2017-08-31T08:11:29.094Z,65.3
2017-08-31T08:12:30.636Z,65.3
2017-08-31T08:13:32.198Z,65.2
2017-08-31T08:14:33.714Z,65.1
2017-08-31T08:15:35.197Z,65.4
2017-08-31T08:16:36.643Z,65.7
2017-08-31T08:17:38.187Z,65.8
2017-08-31T08:18:39.743Z,66.3
2017-08-31T08:19:41.285Z,65.7
2017-08-31T08:20:42.832Z,66.1
2017-08-31T08:21:44.334Z,66.2
2017-08-31T08:22:45.881Z,66.2
2017-08-31T08:23:47.429Z,66.0
2017-08-31T08:24:48.957Z,66.7
2017-08-31T08:25:50.453Z,66.7
2017-08-31T08:26:51.965Z,66.8
2017-08-31T08:27:53.555Z,66.5
2017-08-31T08:28:55.134Z,66.7
2017-08-31T08:29:56.677Z,66.6
2017-08-31T08:30:58.155Z,66.7
2017-08-31T08:31:59.708Z,66.4
2017-08-31T08:33:01.220Z,66.3
2017-08-31T08:34:02.830Z,66.9
2017-08-31T08:35:04.365Z,66.9
2017-08-31T08:36:05.932Z,67.0
2017-08-31T08:37:07.473Z,67.4
2017-08-31T08:38:09.039Z,68.6
2017-08-31T08:39:10.583Z,69.7
2017-08-31T08:40:12.388Z,69.8
2017-08-31T08:41:14.073Z,70.9
2017-08-31T08:42:15.749Z,71.0
2017-08-31T08:43:17.435Z,71.6
2017-08-31T08:44:18.953Z,72.2
2017-08-31T08:45:20.523Z,72.5
2017-08-31T08:46:22.182Z,74.1
2017-08-31T08:47:23.758Z,74.1
2017-08-31T08:48:25.477Z,74.2
2017-08-31T08:49:27.034Z,74.2
2017-08-31T08:50:28.593Z,74.5
2017-08-31T08:51:30.149Z,74.8
2017-08-31T08:52:31.730Z,75.4
2017-08-31T08:53:33.345Z,75.8
2017-08-31T08:54:34.873Z,76.4
2017-08-31T08:55:36.456Z,76.9
2017-08-31T08:56:38.032Z,77.4
2017-08-31T08:57:39.600Z,78.3
2017-08-31T08:58:41.294Z,78.3
2017-08-31T08:59:42.926Z,79.0
2017-08-31T09:00:44.405Z,79.6
2017-08-31T09:01:45.932Z,80.1
2017-08-31T09:02:47.495Z,80.9
2017-08-31T09:03:49.123Z,80.9
2017-08-31T09:04:50.665Z,81.5
2017-08-31T09:05:52.237Z,82.1
2017-08-31T09:06:53.806Z,83.1
2017-08-31T09:07:55.289Z,82.7
2017-08-31T09:08:56.820Z,82.2
2017-08-31T09:09:58.498Z,82.4
2017-08-31T09:11:00.085Z,82.3
2017-08-31T09:12:01.692Z,83.3
2017-08-31T09:13:03.224Z,83.3
2017-08-31T09:14:04.812Z,82.4
2017-08-31T09:15:06.421Z,82.2
2017-08-31T09:16:08.022Z,80.8
2017-08-31T09:17:09.619Z,82.0
2017-08-31T09:18:11.175Z,80.9
2017-08-31T09:19:12.785Z,81.3
2017-08-31T09:20:14.350Z,79.9
2017-08-31T09:21:15.983Z,79.8
2017-08-31T09:22:17.690Z,78.9
2017-08-31T09:23:19.262Z,78.8
2017-08-31T09:24:20.801Z,78.2
2017-08-31T09:25:22.456Z,78.8
2017-08-31T09:26:23.952Z,79.2
2017-08-31T09:27:25.487Z,79.2
2017-08-31T09:28:27.079Z,78.6
2017-08-31T09:29:28.616Z,78.0
2017-08-31T09:30:30.196Z,77.7
2017-08-31T09:31:31.777Z,78.1
2017-08-31T09:32:33.306Z,76.4
2017-08-31T09:33:34.938Z,76.2
2017-08-31T09:34:37.638Z,76.5
2017-08-31T09:35:39.076Z,74.8
2017-08-31T09:36:40.968Z,72.3
2017-08-31T09:37:42.521Z,70.9
2017-08-31T09:38:44.061Z,70.0
2017-08-31T09:39:45.656Z,70.3
2017-08-31T09:40:47.219Z,68.5
2017-08-31T09:41:48.840Z,65.1
2017-08-31T09:42:50.459Z,65.1
2017-08-31T09:43:51.966Z,63.8
2017-08-31T09:44:53.580Z,62.1
2017-08-31T09:45:55.327Z,60.6
2017-08-31T09:46:56.919Z,61.3
2017-08-31T09:47:58.420Z,61.3
2017-08-31T09:49:00.149Z,63.4
2017-08-31T09:50:01.911Z,63.8
2017-08-31T09:51:03.591Z,62.6
2017-08-31T09:52:05.241Z,64.5
2017-08-31T09:53:07.731Z,63.5
2017-08-31T09:54:09.285Z,66.5
2017-08-31T09:55:12.856Z,66.5
2017-08-31T09:56:15.088Z,64.8
2017-08-31T09:57:16.587Z,64.0
2017-08-31T09:58:18.237Z,64.8
2017-08-31T09:59:19.903Z,66.9
2017-08-31T10:00:21.470Z,66.9
2017-08-31T10:01:22.953Z,66.4
2017-08-31T10:02:24.461Z,66.5
2017-08-31T10:03:25.939Z,65.6
2017-08-31T10:04:27.484Z,65.5
2017-08-31T10:05:29.063Z,64.5
2017-08-31T10:06:30.590Z,64.3
2017-08-31T10:07:32.058Z,62.8
2017-08-31T10:08:33.643Z,62.6
2017-08-31T10:09:35.142Z,62.9
2017-08-31T10:10:36.756Z,62.8
2017-08-31T10:11:38.452Z,64.1
2017-08-31T10:12:39.996Z,64.0
2017-08-31T10:13:41.645Z,62.3
2017-08-31T10:14:43.144Z,60.9
2017-08-31T10:15:44.759Z,60.6
2017-08-31T10:16:46.382Z,60.7
2017-08-31T10:17:47.944Z,59.5
2017-08-31T10:18:49.455Z,60.6
2017-08-31T10:19:51.052Z,61.7
2017-08-31T10:20:52.652Z,61.4
2017-08-31T10:21:54.313Z,62.6
2017-08-31T10:22:56.096Z,61.5
2017-08-31T10:23:57.827Z,59.3
2017-08-31T10:24:59.477Z,58.0
2017-08-31T10:26:01.234Z,59.0
2017-08-31T10:27:02.913Z,58.8
2017-08-31T10:28:04.548Z,59.5
2017-08-31T10:29:06.143Z,59.5
2017-08-31T10:30:07.816Z,60.8
2017-08-31T10:31:09.408Z,60.9
2017-08-31T10:32:10.994Z,60.4
2017-08-31T10:33:12.625Z,60.5
2017-08-31T10:34:14.239Z,60.0
2017-08-31T10:35:15.785Z,59.8
2017-08-31T10:36:17.287Z,59.8
2017-08-31T10:37:18.930Z,59.7
2017-08-31T10:38:20.451Z,60.7
2017-08-31T10:39:22.098Z,61.0
2017-08-31T10:40:23.630Z,61.9
2017-08-31T10:41:25.210Z,62.7
2017-08-31T10:42:26.707Z,62.1
2017-08-31T10:43:28.252Z,63.3
2017-08-31T10:44:29.818Z,62.6
2017-08-31T10:45:31.395Z,63.4
2017-08-31T10:46:32.975Z,62.7
2017-08-31T10:47:34.577Z,61.6
2017-08-31T10:48:36.121Z,61.0
2017-08-31T10:49:37.873Z,60.8
2017-08-31T10:50:39.553Z,60.9
2017-08-31T10:51:41.068Z,61.3
2017-08-31T10:52:42.706Z,60.7
2017-08-31T10:53:44.353Z,61.2
2017-08-31T10:54:45.910Z,61.6
2017-08-31T10:55:47.555Z,61.6
2017-08-31T10:56:49.097Z,61.7
2017-08-31T10:57:50.700Z,61.6
2017-08-31T10:58:52.297Z,61.2
2017-08-31T10:59:53.924Z,61.5
2017-08-31T11:00:55.812Z,62.0
2017-08-31T11:01:57.384Z,61.5
2017-08-31T11:02:59.007Z,62.5
2017-08-31T11:04:00.644Z,62.4
2017-08-31T11:05:02.291Z,62.9
2017-08-31T11:06:03.878Z,63.5
2017-08-31T11:07:05.430Z,63.5
2017-08-31T11:08:07.055Z,62.1
2017-08-31T11:09:08.698Z,62.5
2017-08-31T11:10:10.316Z,62.4
2017-08-31T11:11:11.926Z,62.1
2017-08-31T11:12:13.472Z,62.7
2017-08-31T11:13:15.207Z,61.9
2017-08-31T11:14:17.000Z,62.2
2017-08-31T11:15:18.636Z,61.3
2017-08-31T11:16:20.141Z,61.6
2017-08-31T11:17:21.634Z,60.8
2017-08-31T11:18:23.231Z,60.8
2017-08-31T11:19:24.882Z,60.7
2017-08-31T11:20:26.427Z,60.7
2017-08-31T11:21:28.273Z,60.9
2017-08-31T11:22:29.953Z,60.8
2017-08-31T11:23:31.567Z,60.7
2017-08-31T11:24:33.105Z,59.9
2017-08-31T11:25:34.687Z,59.8
2017-08-31T11:26:36.262Z,59.6
2017-08-31T11:27:37.928Z,59.8
2017-08-31T11:28:39.546Z,59.0
2017-08-31T11:29:41.137Z,59.0
2017-08-31T11:30:42.640Z,59.1
2017-08-31T11:31:44.229Z,58.7
2017-08-31T11:32:45.792Z,58.8
2017-08-31T11:33:47.394Z,58.6
2017-08-31T11:34:49.095Z,58.7
2017-08-31T11:35:50.688Z,58.4
2017-08-31T11:36:52.321Z,58.8
2017-08-31T11:37:53.732Z,58.2
2017-08-31T11:38:55.293Z,58.1
2017-08-31T11:39:57.019Z,58.2
2017-08-31T11:40:58.610Z,58.2
2017-08-31T11:42:00.144Z,58.7
2017-08-31T11:43:01.727Z,58.6
2017-08-31T11:44:03.288Z,58.9
2017-08-31T11:45:04.952Z,59.0
2017-08-31T11:46:06.450Z,58.9
2017-08-31T11:47:08.057Z,59.6
2017-08-31T11:48:09.610Z,59.6
2017-08-31T11:49:11.218Z,59.8
2017-08-31T11:50:12.807Z,59.5
2017-08-31T11:51:14.453Z,59.4
2017-08-31T11:52:16.036Z,59.7
2017-08-31T11:53:17.633Z,59.9
2017-08-31T11:54:19.175Z,60.2
2017-08-31T11:55:20.717Z,59.6
2017-08-31T11:56:22.496Z,59.0
2017-08-31T11:57:24.019Z,58.9
2017-08-31T11:58:25.595Z,58.5
2017-08-31T11:59:27.180Z,57.6
2017-08-31T12:00:28.748Z,58.7
2017-08-31T12:01:30.427Z,58.0
2017-08-31T12:02:31.978Z,58.8
2017-08-31T12:03:33.611Z,58.9
2017-08-31T12:04:35.262Z,58.6
2017-08-31T12:05:36.867Z,57.7
2017-08-31T12:06:38.494Z,58.2
2017-08-31T12:07:40.048Z,57.7
2017-08-31T12:08:41.621Z,57.2
2017-08-31T12:09:43.256Z,56.9
2017-08-31T12:10:44.888Z,56.7
2017-08-31T12:11:46.485Z,57.2
2017-08-31T12:12:48.063Z,59.8
2017-08-31T12:13:49.692Z,61.4
2017-08-31T12:14:51.241Z,63.0
2017-08-31T12:15:52.844Z,64.8
2017-08-31T12:16:54.443Z,65.2
2017-08-31T12:17:56.053Z,65.1
2017-08-31T12:18:57.582Z,65.5
2017-08-31T12:19:59.176Z,65.2
2017-08-31T12:21:00.842Z,65.3
2017-08-31T12:22:02.386Z,65.5
2017-08-31T12:23:03.943Z,66.2
2017-08-31T12:24:05.659Z,66.3
2017-08-31T12:25:07.275Z,65.9
2017-08-31T12:26:08.930Z,66.3
2017-08-31T12:27:10.626Z,66.4
2017-08-31T12:28:12.175Z,66.7
2017-08-31T12:29:13.886Z,66.8
2017-08-31T12:30:15.543Z,68.1
2017-08-31T12:31:17.225Z,68.4
2017-08-31T12:32:18.811Z,69.3
2017-08-31T12:33:20.432Z,70.0
2017-08-31T12:34:21.986Z,69.5
2017-08-31T12:35:23.585Z,69.9
2017-08-31T12:36:25.185Z,69.7
2017-08-31T12:37:26.731Z,69.9
2017-08-31T12:38:28.317Z,69.7
2017-08-31T12:39:29.864Z,70.2
2017-08-31T12:40:31.393Z,70.5
2017-08-31T12:41:32.927Z,70.0
2017-08-31T12:42:34.480Z,70.2
2017-08-31T12:43:35.977Z,69.5
2017-08-31T12:44:37.537Z,69.6
2017-08-31T12:45:39.073Z,69.7
2017-08-31T12:46:40.601Z,70.5
2017-08-31T12:47:42.210Z,70.8
2017-08-31T12:48:43.824Z,70.9
2017-08-31T12:49:45.408Z,72.0
2017-08-31T12:50:47.023Z,73.1
2017-08-31T12:51:48.616Z,74.0
2017-08-31T12:52:50.216Z,74.4
2017-08-31T12:53:51.817Z,74.4
2017-08-31T12:54:53.267Z,74.9
2017-08-31T12:55:54.804Z,75.0
2017-08-31T12:56:56.651Z,76.0
2017-08-31T12:57:58.114Z,76.0
2017-08-31T12:58:59.812Z,75.8
2017-08-31T13:00:01.285Z,76.6
2017-08-31T13:01:03.165Z,77.7
2017-08-31T13:02:04.679Z,79.2
2017-08-31T13:03:06.204Z,78.6
2017-08-31T13:04:07.977Z,79.8
2017-08-31T13:05:09.471Z,81.4
2017-08-31T13:06:11.062Z,82.3
2017-08-31T13:07:12.551Z,82.6
2017-08-31T13:08:14.073Z,83.1
2017-08-31T13:09:15.600Z,84.0
2017-08-31T13:10:17.145Z,84.4
2017-08-31T13:11:18.676Z,85.0
2017-08-31T13:12:20.235Z,85.9
2017-08-31T13:13:21.766Z,86.2
2017-08-31T13:14:23.251Z,85.7
2017-08-31T13:15:24.859Z,85.7
2017-08-31T13:16:26.406Z,85.7
2017-08-31T13:17:27.978Z,84.8
2017-08-31T13:18:29.490Z,84.9
2017-08-31T13:19:30.956Z,85.8
2017-08-31T13:20:32.517Z,86.3
2017-08-31T13:21:34.000Z,85.9
2017-08-31T13:22:35.507Z,86.4
2017-08-31T13:23:37.059Z,85.4
2017-08-31T13:24:38.565Z,86.2
2017-08-31T13:25:40.088Z,84.7
2017-08-31T13:26:41.621Z,84.7
2017-08-31T13:27:43.189Z,86.3
2017-08-31T13:28:44.757Z,86.4
2017-08-31T13:29:46.272Z,86.5
2017-08-31T13:30:47.842Z,86.4
2017-08-31T13:31:49.351Z,87.8
2017-08-31T13:32:50.890Z,87.2
2017-08-31T13:33:52.464Z,86.8
2017-08-31T13:34:53.997Z,87.1
2017-08-31T13:35:55.516Z,87.2
2017-08-31T13:36:57.011Z,86.6
2017-08-31T13:37:58.518Z,86.8
2017-08-31T13:39:00.025Z,85.5
2017-08-31T13:40:01.526Z,86.0